sensor_id;sensor_type;location;lat;lon;timestamp;pressure;altitude;pressure_sealevel;temperature;humidity
37634;BME280;32048;49.902;22.508;2023-01-25T00:00:29;100634.47;;;-0.73;100.00
37634;BME280;32048;49.902;22.508;2023-01-25T00:03:16;100632.69;;;-0.75;100.00
37634;BME280;32048;49.902;22.508;2023-01-25T00:05:44;100626.63;;;-0.74;100.00
37634;BME280;32048;49.902;22.508;2023-01-25T00:08:11;100627.50;;;-0.75;100.00
37634;BME280;32048;49.902;22.508;2023-01-25T00:10:38;100617.06;;;-0.77;100.00
37634;BME280;32048;49.902;22.508;2023-01-25T00:13:05;100616.19;;;-0.77;100.00
37634;BME280;32048;49.902;22.508;2023-01-25T00:15:32;100621.38;;;-0.77;100.00
37634;BME280;32048;49.902;22.508;2023-01-25T00:17:59;100626.63;;;-0.76;100.00
37634;BME280;32048;49.902;22.508;2023-01-25T00:20:26;100618.00;;;-0.75;100.00
37634;BME280;32048;49.902;22.508;2023-01-25T00:22:53;100616.25;;;-0.74;100.00
37634;BME280;32048;49.902;22.508;2023-01-25T00:25:20;100615.44;;;-0.73;100.00
37634;BME280;32048;49.902;22.508;2023-01-25T00:27:48;100617.13;;;-0.75;100.00
37634;BME280;32048;49.902;22.508;2023-01-25T00:30:15;100626.69;;;-0.73;100.00
37634;BME280;32048;49.902;22.508;2023-01-25T00:32:57;100615.38;;;-0.75;100.00
37634;BME280;32048;49.902;22.508;2023-01-25T00:35:29;100612.84;;;-0.73;100.00
37634;BME280;32048;49.902;22.508;2023-01-25T00:38:00;100618.03;;;-0.73;100.00
37634;BME280;32048;49.902;22.508;2023-01-25T00:40:28;100608.56;;;-0.71;100.00
37634;BME280;32048;49.902;22.508;2023-01-25T00:42:55;100608.53;;;-0.73;100.00
37634;BME280;32048;49.902;22.508;2023-01-25T00:45:22;100603.38;;;-0.71;100.00
37634;BME280;32048;49.902;22.508;2023-01-25T00:47:53;100603.38;;;-0.71;100.00
37634;BME280;32048;49.902;22.508;2023-01-25T00:50:20;100593.03;;;-0.70;100.00
37634;BME280;32048;49.902;22.508;2023-01-25T00:52:47;100587.72;;;-0.74;100.00
37634;BME280;32048;49.902;22.508;2023-01-25T00:55:15;100589.53;;;-0.72;100.00
37634;BME280;32048;49.902;22.508;2023-01-25T00:57:42;100591.25;;;-0.72;100.00
37634;BME280;32048;49.902;22.508;2023-01-25T01:00:09;100587.72;;;-0.74;100.00
37634;BME280;32048;49.902;22.508;2023-01-25T01:02:37;100590.38;;;-0.73;100.00
37634;BME280;32048;49.902;22.508;2023-01-25T01:05:04;100580.91;;;-0.71;100.00
37634;BME280;32048;49.902;22.508;2023-01-25T01:07:32;100582.59;;;-0.73;100.00
37634;BME280;32048;49.902;22.508;2023-01-25T01:09:59;100574.81;;;-0.73;100.00
37634;BME280;32048;49.902;22.508;2023-01-25T01:12:26;100574.81;;;-0.73;100.00
37634;BME280;32048;49.902;22.508;2023-01-25T01:14:53;100578.31;;;-0.71;100.00
37634;BME280;32048;49.902;22.508;2023-01-25T01:17:20;100574.84;;;-0.71;100.00
37634;BME280;32048;49.902;22.508;2023-01-25T01:19:47;100577.44;;;-0.71;100.00
37634;BME280;32048;49.902;22.508;2023-01-25T01:22:14;100561.88;;;-0.70;100.00
37634;BME280;32048;49.902;22.508;2023-01-25T01:24:41;100572.31;;;-0.68;100.00
37634;BME280;32048;49.902;22.508;2023-01-25T01:27:08;100576.69;;;-0.67;100.00
37634;BME280;32048;49.902;22.508;2023-01-25T01:29:35;100571.44;;;-0.69;100.00
37634;BME280;32048;49.902;22.508;2023-01-25T01:32:03;100564.47;;;-0.70;100.00
37634;BME280;32048;49.902;22.508;2023-01-25T01:34:30;100561.78;;;-0.74;100.00
37634;BME280;32048;49.902;22.508;2023-01-25T01:36:57;100567.03;;;-0.73;100.00
37634;BME280;32048;49.902;22.508;2023-01-25T01:39:25;100556.59;;;-0.74;100.00
37634;BME280;32048;49.902;22.508;2023-01-25T01:41:52;100556.59;;;-0.74;100.00
37634;BME280;32048;49.902;22.508;2023-01-25T01:44:39;100561.00;;;-0.72;100.00
37634;BME280;32048;49.902;22.508;2023-01-25T01:47:58;100556.69;;;-0.71;100.00
37634;BME280;32048;49.902;22.508;2023-01-25T01:50:11;100539.34;;;-0.72;100.00
37634;BME280;32048;49.902;22.508;2023-01-25T01:52:43;100544.53;;;-0.72;100.00
37634;BME280;32048;49.902;22.508;2023-01-25T01:55:14;100542.03;;;-0.69;100.00
37634;BME280;32048;49.902;22.508;2023-01-25T01:57:47;100542.09;;;-0.66;100.00
37634;BME280;32048;49.902;22.508;2023-01-25T02:02:43;100538.63;;;-0.65;100.00
37634;BME280;32048;49.902;22.508;2023-01-25T02:05:19;100540.38;;;-0.66;100.00
37634;BME280;32048;49.902;22.508;2023-01-25T02:07:49;100532.59;;;-0.66;100.00
37634;BME280;32048;49.902;22.508;2023-01-25T02:10:19;100535.19;;;-0.66;100.00
37634;BME280;32048;49.902;22.508;2023-01-25T02:12:47;100536.03;;;-0.67;100.00
37634;BME280;32048;49.902;22.508;2023-01-25T02:15:14;100542.88;;;-0.70;100.00
37634;BME280;32048;49.902;22.508;2023-01-25T02:17:41;100538.53;;;-0.71;100.00
37634;BME280;32048;49.902;22.508;2023-01-25T02:25:33;100528.91;;;-0.75;100.00
37634;BME280;32048;49.902;22.508;2023-01-25T02:28:10;100518.53;;;-0.75;100.00
37634;BME280;32048;49.902;22.508;2023-01-25T02:30:41;100519.47;;;-0.73;100.00
37634;BME280;32048;49.902;22.508;2023-01-25T02:33:08;100516.91;;;-0.72;100.00
37634;BME280;32048;49.902;22.508;2023-01-25T02:35:45;100516.91;;;-0.70;100.00
37634;BME280;32048;49.902;22.508;2023-01-25T02:38:16;100510.88;;;-0.71;100.00
37634;BME280;32048;49.902;22.508;2023-01-25T02:43:36;100510.97;;;-0.66;100.00
37634;BME280;32048;49.902;22.508;2023-01-25T02:46:12;100519.66;;;-0.64;100.00
37634;BME280;32048;49.902;22.508;2023-01-25T02:48:40;100518.81;;;-0.63;100.00
37634;BME280;32048;49.902;22.508;2023-01-25T02:51:08;100523.16;;;-0.62;100.00
37634;BME280;32048;49.902;22.508;2023-01-25T02:53:35;100515.44;;;-0.60;100.00
37634;BME280;32048;49.902;22.508;2023-01-25T02:56:03;100518.88;;;-0.60;100.00
37634;BME280;32048;49.902;22.508;2023-01-25T02:58:30;100516.28;;;-0.60;100.00
37634;BME280;32048;49.902;22.508;2023-01-25T03:00:57;100514.50;;;-0.63;100.00
37634;BME280;32048;49.902;22.508;2023-01-25T03:03:24;100513.66;;;-0.61;100.00
37634;BME280;32048;49.902;22.508;2023-01-25T03:05:52;100517.13;;;-0.61;100.00
37634;BME280;32048;49.902;22.508;2023-01-25T03:08:19;100505.81;;;-0.63;100.00
37634;BME280;32048;49.902;22.508;2023-01-25T03:10:46;100507.50;;;-0.65;100.00
37634;BME280;32048;49.902;22.508;2023-01-25T03:13:13;100506.63;;;-0.67;100.00
37634;BME280;32048;49.902;22.508;2023-01-25T03:15:40;100500.59;;;-0.66;100.00
37634;BME280;32048;49.902;22.508;2023-01-25T03:18:07;100505.78;;;-0.66;100.00
37634;BME280;32048;49.902;22.508;2023-01-25T03:20:35;100497.13;;;-0.67;100.00
37634;BME280;32048;49.902;22.508;2023-01-25T03:23:01;100494.53;;;-0.67;100.00
37634;BME280;32048;49.902;22.508;2023-01-25T03:25:29;100498.00;;;-0.66;100.00
37634;BME280;32048;49.902;22.508;2023-01-25T03:27:56;100504.03;;;-0.66;100.00
37634;BME280;32048;49.902;22.508;2023-01-25T03:30:23;100500.63;;;-0.63;100.00
37634;BME280;32048;49.902;22.508;2023-01-25T03:32:50;100504.16;;;-0.61;100.00
37634;BME280;32048;49.902;22.508;2023-01-25T03:35:18;100497.25;;;-0.60;100.00
37634;BME280;32048;49.902;22.508;2023-01-25T03:37:45;100499.03;;;-0.58;100.00
37634;BME280;32048;49.902;22.508;2023-01-25T03:40:12;100494.72;;;-0.57;100.00
37634;BME280;32048;49.902;22.508;2023-01-25T03:42:39;100499.06;;;-0.56;100.00
37634;BME280;32048;49.902;22.508;2023-01-25T03:45:07;100497.31;;;-0.57;100.00
37634;BME280;32048;49.902;22.508;2023-01-25T03:47:35;100498.22;;;-0.55;100.00
37634;BME280;32048;49.902;22.508;2023-01-25T03:50:02;100497.41;;;-0.53;100.00
37634;BME280;32048;49.902;22.508;2023-01-25T03:52:29;100494.00;;;-0.50;100.00
37634;BME280;32048;49.902;22.508;2023-01-25T03:55:04;100499.16;;;-0.52;100.00
37634;BME280;32048;49.902;22.508;2023-01-25T03:57:32;100496.53;;;-0.52;100.00
37634;BME280;32048;49.902;22.508;2023-01-25T03:59:59;100487.94;;;-0.51;100.00
37634;BME280;32048;49.902;22.508;2023-01-25T04:02:26;100485.31;;;-0.52;100.00
37634;BME280;32048;49.902;22.508;2023-01-25T04:04:53;100486.97;;;-0.54;100.00
37634;BME280;32048;49.902;22.508;2023-01-25T04:07:20;100480.88;;;-0.56;100.00
37634;BME280;32048;49.902;22.508;2023-01-25T04:09:47;100478.28;;;-0.56;100.00
37634;BME280;32048;49.902;22.508;2023-01-25T04:12:15;100479.16;;;-0.57;100.00
37634;BME280;32048;49.902;22.508;2023-01-25T04:14:42;100472.19;;;-0.58;100.00
37634;BME280;32048;49.902;22.508;2023-01-25T04:17:10;100478.25;;;-0.59;100.00
37634;BME280;32048;49.902;22.508;2023-01-25T04:19:37;100473.97;;;-0.57;100.00
37634;BME280;32048;49.902;22.508;2023-01-25T04:22:04;100471.31;;;-0.59;100.00
37634;BME280;32048;49.902;22.508;2023-01-25T04:24:32;100476.50;;;-0.59;100.00
37634;BME280;32048;49.902;22.508;2023-01-25T04:26:59;100473.09;;;-0.58;100.00
37634;BME280;32048;49.902;22.508;2023-01-25T04:29:26;100472.19;;;-0.60;100.00
37634;BME280;32048;49.902;22.508;2023-01-25T04:32:06;100465.22;;;-0.63;100.00
37634;BME280;32048;49.902;22.508;2023-01-25T04:34:34;100464.31;;;-0.63;100.00
37634;BME280;32048;49.902;22.508;2023-01-25T04:37:01;100463.50;;;-0.62;100.00
37634;BME280;32048;49.902;22.508;2023-01-25T04:39:28;100460.91;;;-0.62;100.00
37634;BME280;32048;49.902;22.508;2023-01-25T04:41:55;100453.13;;;-0.62;100.00
37634;BME280;32048;49.902;22.508;2023-01-25T04:44:22;100455.75;;;-0.60;100.00
37634;BME280;32048;49.902;22.508;2023-01-25T04:46:49;100448.88;;;-0.57;100.00
37634;BME280;32048;49.902;22.508;2023-01-25T04:49:16;100465.31;;;-0.56;100.00
37634;BME280;32048;49.902;22.508;2023-01-25T04:51:43;100450.66;;;-0.54;100.00
37634;BME280;32048;49.902;22.508;2023-01-25T04:54:10;100448.06;;;-0.54;100.00
37634;BME280;32048;49.902;22.508;2023-01-25T04:56:37;100450.66;;;-0.54;100.00
37634;BME280;32048;49.902;22.508;2023-01-25T04:59:05;100442.06;;;-0.52;100.00
37634;BME280;32048;49.902;22.508;2023-01-25T05:01:32;100448.19;;;-0.48;100.00
37634;BME280;32048;49.902;22.508;2023-01-25T05:04:00;100444.75;;;-0.47;100.00
37634;BME280;32048;49.902;22.508;2023-01-25T05:06:26;100437.88;;;-0.45;100.00
37634;BME280;32048;49.902;22.508;2023-01-25T05:08:54;100443.09;;;-0.44;100.00
37634;BME280;32048;49.902;22.508;2023-01-25T05:11:20;100440.50;;;-0.44;100.00
37634;BME280;32048;49.902;22.508;2023-01-25T05:13:48;100443.13;;;-0.42;100.00
37634;BME280;32048;49.902;22.508;2023-01-25T05:16:15;100450.91;;;-0.42;100.00
37634;BME280;32048;49.902;22.508;2023-01-25T05:18:42;100447.47;;;-0.41;100.00
37634;BME280;32048;49.902;22.508;2023-01-25T05:21:14;100440.50;;;-0.44;100.00
37634;BME280;32048;49.902;22.508;2023-01-25T05:24:00;100440.53;;;-0.42;100.00
37634;BME280;32048;49.902;22.508;2023-01-25T05:26:27;100431.88;;;-0.43;100.00
37634;BME280;32048;49.902;22.508;2023-01-25T05:29:13;100434.44;;;-0.44;100.00
37634;BME280;32048;49.902;22.508;2023-01-25T05:31:40;100436.13;;;-0.46;100.00
37634;BME280;32048;49.902;22.508;2023-01-25T05:34:07;100437.03;;;-0.44;100.00
37634;BME280;32048;49.902;22.508;2023-01-25T05:36:34;100435.22;;;-0.48;100.00
37634;BME280;32048;49.902;22.508;2023-01-25T05:39:04;100440.41;;;-0.48;100.00
37634;BME280;32048;49.902;22.508;2023-01-25T05:41:32;100435.16;;;-0.51;100.00
37634;BME280;32048;49.902;22.508;2023-01-25T05:43:59;100437.81;;;-0.48;100.00
37634;BME280;32048;49.902;22.508;2023-01-25T05:46:27;100442.19;;;-0.46;100.00
37634;BME280;32048;49.902;22.508;2023-01-25T05:48:54;100440.50;;;-0.44;100.00
37634;BME280;32048;49.902;22.508;2023-01-25T05:51:21;100440.53;;;-0.42;100.00
37634;BME280;32048;49.902;22.508;2023-01-25T05:53:49;100441.47;;;-0.38;100.00
37634;BME280;32048;49.902;22.508;2023-01-25T05:56:16;100440.66;;;-0.36;100.00
37634;BME280;32048;49.902;22.508;2023-01-25T05:58:43;100445.00;;;-0.35;100.00
37634;BME280;32048;49.902;22.508;2023-01-25T06:01:10;100430.28;;;-0.36;100.00
37634;BME280;32048;49.902;22.508;2023-01-25T06:03:37;100438.13;;;-0.33;100.00
37634;BME280;32048;49.902;22.508;2023-01-25T06:06:04;100439.91;;;-0.30;100.00
37634;BME280;32048;49.902;22.508;2023-01-25T06:08:32;100436.47;;;-0.28;100.00
37634;BME280;32048;49.902;22.508;2023-01-25T06:11:05;100445.16;;;-0.26;100.00
37634;BME280;32048;49.902;22.508;2023-01-25T06:13:32;100444.38;;;-0.22;100.00
37634;BME280;32048;49.902;22.508;2023-01-25T06:15:59;100439.25;;;-0.20;100.00
37634;BME280;32048;49.902;22.508;2023-01-25T06:18:29;100443.59;;;-0.17;100.00
37634;BME280;32048;49.902;22.508;2023-01-25T06:20:57;100436.72;;;-0.15;100.00
37634;BME280;32048;49.902;22.508;2023-01-25T06:23:25;100429.81;;;-0.15;100.00
37634;BME280;32048;49.902;22.508;2023-01-25T06:25:56;100435.03;;;-0.12;100.00
37634;BME280;32048;49.902;22.508;2023-01-25T06:28:23;100430.72;;;-0.11;100.00
37634;BME280;32048;49.902;22.508;2023-01-25T06:30:50;100435.06;;;-0.10;100.00
37634;BME280;32048;49.902;22.508;2023-01-25T06:33:17;100423.81;;;-0.09;100.00
37634;BME280;32048;49.902;22.508;2023-01-25T06:35:44;100429.97;;;-0.06;100.00
37634;BME280;32048;49.902;22.508;2023-01-25T06:38:12;100435.19;;;-0.03;100.00
37634;BME280;32048;49.902;22.508;2023-01-25T06:40:39;100424.88;;;0.01;100.00
37634;BME280;32048;49.902;22.508;2023-01-25T06:43:10;100426.66;;;0.03;100.00
37634;BME280;32048;49.902;22.508;2023-01-25T06:45:37;100418.94;;;0.08;100.00
37634;BME280;32048;49.902;22.508;2023-01-25T06:48:05;100419.88;;;0.11;100.00
37634;BME280;32048;49.902;22.508;2023-01-25T06:50:31;100426.84;;;0.15;100.00
37634;BME280;32048;49.902;22.508;2023-01-25T06:52:59;100423.47;;;0.19;100.00
37634;BME280;32048;49.902;22.508;2023-01-25T06:55:26;100418.31;;;0.21;100.00
37634;BME280;32048;49.902;22.508;2023-01-25T06:57:53;100416.66;;;0.26;100.00
37634;BME280;32048;49.902;22.508;2023-01-25T07:00:20;100410.66;;;0.30;100.00
37634;BME280;32048;49.902;22.508;2023-01-25T07:02:47;100408.13;;;0.35;100.00
37634;BME280;32048;49.902;22.508;2023-01-25T07:05:14;100403.81;;;0.35;100.00
37634;BME280;32048;49.902;22.508;2023-01-25T07:07:45;100410.81;;;0.39;100.00
37634;BME280;32048;49.902;22.508;2023-01-25T07:10:12;100402.22;;;0.44;100.00
37634;BME280;32048;49.902;22.508;2023-01-25T07:12:39;100390.13;;;0.46;100.00
37634;BME280;32048;49.902;22.508;2023-01-25T07:15:06;100399.72;;;0.50;100.00
37634;BME280;32048;49.902;22.508;2023-01-25T07:17:34;100402.38;;;0.54;100.00
37634;BME280;32048;49.902;22.508;2023-01-25T07:20:02;100403.28;;;0.58;100.00
37634;BME280;32048;49.902;22.508;2023-01-25T07:22:29;100401.56;;;0.60;100.00
37634;BME280;32048;49.902;22.508;2023-01-25T07:24:56;100405.09;;;0.64;100.00
37634;BME280;32048;49.902;22.508;2023-01-25T07:27:24;100414.66;;;0.65;100.00
37634;BME280;32048;49.902;22.508;2023-01-25T07:29:51;100412.03;;;0.65;100.00
37634;BME280;32048;49.902;22.508;2023-01-25T07:32:19;100409.47;;;0.66;100.00
37634;BME280;32048;49.902;22.508;2023-01-25T07:34:46;100403.34;;;0.62;100.00
37634;BME280;32048;49.902;22.508;2023-01-25T07:37:13;100406.84;;;0.63;100.00
37634;BME280;32048;49.902;22.508;2023-01-25T07:39:40;100402.50;;;0.64;100.00
37634;BME280;32048;49.902;22.508;2023-01-25T07:42:14;100400.78;;;0.64;100.00
37634;BME280;32048;49.902;22.508;2023-01-25T07:44:41;100398.19;;;0.64;100.00
37634;BME280;32048;49.902;22.508;2023-01-25T07:47:08;100399.03;;;0.65;100.00
37634;BME280;32048;49.902;22.508;2023-01-25T07:49:35;100387.78;;;0.64;100.00
37634;BME280;32048;49.902;22.508;2023-01-25T07:52:03;100392.94;;;0.61;100.00
37634;BME280;32048;49.902;22.508;2023-01-25T07:54:30;100406.75;;;0.57;100.00
37634;BME280;32048;49.902;22.508;2023-01-25T07:56:57;100393.75;;;0.57;100.00
37634;BME280;32048;49.902;22.508;2023-01-25T07:59:24;100397.19;;;0.54;100.00
37634;BME280;32048;49.902;22.508;2023-01-25T08:01:52;100396.28;;;0.54;100.00
37634;BME280;32048;49.902;22.508;2023-01-25T08:04:19;100398.06;;;0.56;100.00
37634;BME280;32048;49.902;22.508;2023-01-25T08:06:46;100388.59;;;0.58;100.00
37634;BME280;32048;49.902;22.508;2023-01-25T08:09:16;100391.19;;;0.58;100.00
37634;BME280;32048;49.902;22.508;2023-01-25T08:11:46;100395.53;;;0.62;100.00
37634;BME280;32048;49.902;22.508;2023-01-25T08:14:15;100389.53;;;0.67;100.00
37634;BME280;32048;49.902;22.508;2023-01-25T08:16:42;100393.06;;;0.70;100.00
37634;BME280;32048;49.902;22.508;2023-01-25T08:19:10;100393.06;;;0.72;100.00
37634;BME280;32048;49.902;22.508;2023-01-25T08:21:37;100393.94;;;0.71;100.00
37634;BME280;32048;49.902;22.508;2023-01-25T08:24:05;100387.00;;;0.70;100.00
37634;BME280;32048;49.902;22.508;2023-01-25T08:26:34;100381.75;;;0.67;100.00
37634;BME280;32048;49.902;22.508;2023-01-25T08:29:02;100380.78;;;0.60;100.00
37634;BME280;32048;49.902;22.508;2023-01-25T08:31:31;100382.47;;;0.58;100.00
37634;BME280;32048;49.902;22.508;2023-01-25T08:33:59;100369.53;;;0.59;100.00
37634;BME280;32048;49.902;22.508;2023-01-25T08:36:27;100367.78;;;0.58;100.00
37634;BME280;32048;49.902;22.508;2023-01-25T08:38:59;100371.22;;;0.57;100.00
37634;BME280;32048;49.902;22.508;2023-01-25T08:41:29;100371.34;;;0.67;100.00
37634;BME280;32048;49.902;22.508;2023-01-25T08:43:56;100364.56;;;0.78;100.00
37634;BME280;32048;49.902;22.508;2023-01-25T08:46:26;100367.31;;;0.89;100.00
37634;BME280;32048;49.902;22.508;2023-01-25T08:48:59;100366.56;;;0.97;100.00
37634;BME280;32048;49.902;22.508;2023-01-25T08:51:27;100372.75;;;1.07;100.00
37634;BME280;32048;49.902;22.508;2023-01-25T08:53:54;100372.03;;;1.17;100.00
37634;BME280;32048;49.902;22.508;2023-01-25T08:56:21;100372.97;;;1.24;100.00
37634;BME280;32048;49.902;22.508;2023-01-25T08:58:49;100380.84;;;1.30;100.00
37634;BME280;32048;49.902;22.508;2023-01-25T09:01:18;100380.00;;;1.34;100.00
37634;BME280;32048;49.902;22.508;2023-01-25T09:03:47;100369.63;;;1.36;100.00
37634;BME280;32048;49.902;22.508;2023-01-25T09:06:16;100378.34;;;1.41;100.00
37634;BME280;32048;49.902;22.508;2023-01-25T09:08:43;100377.50;;;1.42;100.00
37634;BME280;32048;49.902;22.508;2023-01-25T09:11:13;100373.84;;;1.24;100.00
37634;BME280;32048;49.902;22.508;2023-01-25T09:13:40;100377.31;;;1.23;100.00
37634;BME280;32048;49.902;22.508;2023-01-25T09:16:22;100379.03;;;1.24;100.00
37634;BME280;32048;49.902;22.508;2023-01-25T09:18:58;100366.91;;;1.27;100.00
37634;BME280;32048;49.902;22.508;2023-01-25T09:21:26;100365.22;;;1.29;100.00
37634;BME280;32048;49.902;22.508;2023-01-25T09:23:54;100372.19;;;1.31;100.00
37634;BME280;32048;49.902;22.508;2023-01-25T09:26:39;100370.47;;;1.33;100.00
37634;BME280;32048;49.902;22.508;2023-01-25T09:29:10;100367.88;;;1.36;100.00
37634;BME280;32048;49.902;22.508;2023-01-25T09:31:38;100371.31;;;1.32;100.00
37634;BME280;32048;49.902;22.508;2023-01-25T09:34:13;100371.22;;;1.24;100.00
37634;BME280;32048;49.902;22.508;2023-01-25T09:36:40;100363.44;;;1.28;100.00
37634;BME280;32048;49.902;22.508;2023-01-25T09:39:09;100356.59;;;1.34;100.00
37634;BME280;32048;49.902;22.508;2023-01-25T09:47:28;100360.84;;;1.28;100.00
37634;BME280;32048;49.902;22.508;2023-01-25T09:55:31;100349.34;;;1.07;100.00
37634;BME280;32048;49.902;22.508;2023-01-25T09:58:01;100335.44;;;1.05;100.00
37634;BME280;32048;49.902;22.508;2023-01-25T10:00:32;100335.31;;;0.93;100.00
37634;BME280;32048;49.902;22.508;2023-01-25T10:03:25;100330.06;;;0.91;100.00
37634;BME280;32048;49.902;22.508;2023-01-25T10:05:57;100328.28;;;0.87;100.00
37634;BME280;32048;49.902;22.508;2023-01-25T10:11:15;100316.28;;;0.98;100.00
37634;BME280;32048;49.902;22.508;2023-01-25T10:13:46;100312.91;;;1.06;100.00
37634;BME280;32048;49.902;22.508;2023-01-25T10:16:25;100312.97;;;1.12;100.00
37634;BME280;32048;49.902;22.508;2023-01-25T10:19:13;100311.25;;;1.14;100.00
37634;BME280;32048;49.902;22.508;2023-01-25T10:22:14;100312.19;;;1.19;100.00
37634;BME280;32048;49.902;22.508;2023-01-25T10:30:26;100300.13;;;1.27;100.00
37634;BME280;32048;49.902;22.508;2023-01-25T10:33:05;100305.25;;;1.19;100.00
37634;BME280;32048;49.902;22.508;2023-01-25T10:35:37;100296.50;;;1.11;100.00
37634;BME280;32048;49.902;22.508;2023-01-25T10:38:32;100293.69;;;0.93;100.00
37634;BME280;32048;49.902;22.508;2023-01-25T10:43:43;100282.44;;;0.95;100.00
37634;BME280;32048;49.902;22.508;2023-01-25T10:46:18;100272.00;;;0.92;100.00
37634;BME280;32048;49.902;22.508;2023-01-25T10:48:46;100273.75;;;0.93;100.00
37634;BME280;32048;49.902;22.508;2023-01-25T10:51:31;100270.25;;;0.91;100.00
37634;BME280;32048;49.902;22.508;2023-01-25T10:54:04;100265.03;;;0.88;100.00
37634;BME280;32048;49.902;22.508;2023-01-25T10:56:33;100262.47;;;0.93;100.00
37634;BME280;32048;49.902;22.508;2023-01-25T10:59:05;100259.00;;;0.92;100.00
37634;BME280;32048;49.902;22.508;2023-01-25T11:01:34;100252.16;;;1.00;100.00
37634;BME280;32048;49.902;22.508;2023-01-25T11:04:02;100259.09;;;1.01;100.00
37634;BME280;32048;49.902;22.508;2023-01-25T11:06:37;100247.00;;;1.07;100.00
37634;BME280;32048;49.902;22.508;2023-01-25T11:09:30;100245.28;;;1.07;100.00
37634;BME280;32048;49.902;22.508;2023-01-25T11:14:30;100240.84;;;0.97;100.00
37634;BME280;32048;49.902;22.508;2023-01-25T11:16:59;100237.31;;;0.90;100.00
37634;BME280;32048;49.902;22.508;2023-01-25T11:19:32;100232.06;;;0.87;100.00
37634;BME280;32048;49.902;22.508;2023-01-25T11:22:02;100234.66;;;0.86;100.00
37634;BME280;32048;49.902;22.508;2023-01-25T11:24:34;100232.94;;;0.88;100.00
37634;BME280;32048;49.902;22.508;2023-01-25T11:27:25;100232.03;;;0.84;100.00
37634;BME280;32048;49.902;22.508;2023-01-25T11:30:16;100219.03;;;0.84;100.00
37634;BME280;32048;49.902;22.508;2023-01-25T11:32:47;100212.97;;;0.83;100.00
37634;BME280;32048;49.902;22.508;2023-01-25T11:35:18;100221.63;;;0.84;100.00
37634;BME280;32048;49.902;22.508;2023-01-25T11:40:21;100219.78;;;0.74;100.00
37634;BME280;32048;49.902;22.508;2023-01-25T12:19:28;100170.44;;;0.77;100.00
37634;BME280;32048;49.902;22.508;2023-01-25T12:30:23;100162.78;;;0.92;100.00
37634;BME280;32048;49.902;22.508;2023-01-25T12:32:57;100153.28;;;0.94;100.00
37634;BME280;32048;49.902;22.508;2023-01-25T12:35:44;100155.88;;;0.97;100.00
37634;BME280;32048;49.902;22.508;2023-01-25T12:38:17;100149.81;;;0.98;100.00
37634;BME280;32048;49.902;22.508;2023-01-25T12:40:52;100150.69;;;1.00;100.00
37634;BME280;32048;49.902;22.508;2023-01-25T12:43:30;100149.00;;;1.02;100.00
37634;BME280;32048;49.902;22.508;2023-01-25T12:46:15;100146.31;;;0.96;100.00
37634;BME280;32048;49.902;22.508;2023-01-25T12:48:49;100145.34;;;0.83;100.00
37634;BME280;32048;49.902;22.508;2023-01-25T12:51:19;100151.38;;;0.79;100.00
37634;BME280;32048;49.902;22.508;2023-01-25T12:53:48;100142.72;;;0.80;100.00
37634;BME280;32048;49.902;22.508;2023-01-25T12:56:38;100139.31;;;0.86;100.00
37634;BME280;32048;49.902;22.508;2023-01-25T13:05:05;100130.56;;;0.78;100.00
37634;BME280;32048;49.902;22.508;2023-01-25T13:07:43;100135.75;;;0.78;100.00
37634;BME280;32048;49.902;22.508;2023-01-25T13:10:23;100127.09;;;0.77;100.00
37634;BME280;32048;49.902;22.508;2023-01-25T13:13:00;100127.97;;;0.76;100.00
37634;BME280;32048;49.902;22.508;2023-01-25T13:15:41;100127.97;;;0.76;100.00
37634;BME280;32048;49.902;22.508;2023-01-25T13:20:54;100116.72;;;0.79;100.00
37634;BME280;32048;49.902;22.508;2023-01-25T13:28:48;100112.38;;;0.79;100.00
37634;BME280;32048;49.902;22.508;2023-01-25T13:39:55;100090.66;;;0.76;100.00
37634;BME280;32048;49.902;22.508;2023-01-25T13:42:34;100087.19;;;0.75;100.00
37634;BME280;32048;49.902;22.508;2023-01-25T13:45:16;100082.84;;;0.73;100.00
37634;BME280;32048;49.902;22.508;2023-01-25T13:47:58;100081.13;;;0.75;100.00
37634;BME280;32048;49.902;22.508;2023-01-25T13:50:31;100085.47;;;0.76;100.00
37634;BME280;32048;49.902;22.508;2023-01-25T13:53:16;100087.16;;;0.68;100.00
37634;BME280;32048;49.902;22.508;2023-01-25T13:55:49;100084.44;;;0.60;100.00
37634;BME280;32048;49.902;22.508;2023-01-25T14:03:25;100082.53;;;0.39;100.00
37634;BME280;32048;49.902;22.508;2023-01-25T14:05:55;100079.06;;;0.40;100.00
37634;BME280;32048;49.902;22.508;2023-01-25T14:08:24;100079.06;;;0.40;100.00
37634;BME280;32048;49.902;22.508;2023-01-25T14:10:52;100072.97;;;0.38;100.00
37634;BME280;32048;49.902;22.508;2023-01-25T14:13:20;100069.47;;;0.36;100.00
37634;BME280;32048;49.902;22.508;2023-01-25T14:15:52;100072.06;;;0.36;100.00
37634;BME280;32048;49.902;22.508;2023-01-25T14:18:25;100064.28;;;0.36;100.00
37634;BME280;32048;49.902;22.508;2023-01-25T14:21:13;100058.22;;;0.34;100.00
37634;BME280;32048;49.902;22.508;2023-01-25T14:23:40;100054.75;;;0.32;100.00
37634;BME280;32048;49.902;22.508;2023-01-25T14:26:25;100054.72;;;0.30;100.00
37634;BME280;32048;49.902;22.508;2023-01-25T14:28:54;100059.03;;;0.31;100.00
37634;BME280;32048;49.902;22.508;2023-01-25T14:31:34;100058.94;;;0.20;100.00
37634;BME280;32048;49.902;22.508;2023-01-25T14:34:02;100057.09;;;0.10;100.00
37634;BME280;32048;49.902;22.508;2023-01-25T14:36:32;100047.53;;;0.06;100.00
37634;BME280;32048;49.902;22.508;2023-01-25T14:39:01;100047.50;;;0.03;100.00
37634;BME280;32048;49.902;22.508;2023-01-25T14:41:36;100041.38;;;-0.01;100.00